createdAt,value
2019-05-10T00:02:14.181Z,12.57
2019-05-10T00:05:00.643Z,11.90
2019-05-10T00:07:47.630Z,12.30
2019-05-10T00:10:15.766Z,12.83
2019-05-10T00:13:05.370Z,12.50
2019-05-10T00:15:35.010Z,12.27
2019-05-10T00:18:03.669Z,11.40
2019-05-10T00:20:32.339Z,11.87
2019-05-10T00:23:00.874Z,11.50
2019-05-10T00:25:29.352Z,12.87
2019-05-10T00:27:57.842Z,12.40
2019-05-10T00:30:26.405Z,12.83
2019-05-10T00:32:55.097Z,12.17
2019-05-10T00:35:23.813Z,12.30
2019-05-10T00:37:52.495Z,12.47
2019-05-10T00:40:21.298Z,11.87
2019-05-10T00:42:50.014Z,12.40
2019-05-10T00:45:18.600Z,12.43
2019-05-10T00:47:47.295Z,11.87
2019-05-10T00:50:15.777Z,11.67
2019-05-10T00:52:44.388Z,11.80
2019-05-10T00:55:18.860Z,11.63
2019-05-10T00:57:43.508Z,10.37
2019-05-10T01:00:12.469Z,11.23
2019-05-10T01:02:41.104Z,10.80
2019-05-10T01:05:09.752Z,10.87
2019-05-10T01:07:38.310Z,10.17
2019-05-10T01:10:07.123Z,10.37
2019-05-10T01:12:35.617Z,11.03
2019-05-10T01:15:04.642Z,10.57
2019-05-10T01:17:33.228Z,10.07
2019-05-10T01:20:02.260Z,10.43
2019-05-10T01:22:31.028Z,9.93
2019-05-10T01:24:59.742Z,10.10
2019-05-10T01:27:28.526Z,10.47
2019-05-10T01:29:56.991Z,10.43
2019-05-10T01:32:25.582Z,9.97
2019-05-10T01:34:54.199Z,9.73
2019-05-10T01:37:22.695Z,10.67
2019-05-10T01:39:51.420Z,10.23
2019-05-10T01:42:20.009Z,10.40
2019-05-10T01:44:48.529Z,9.87
2019-05-10T01:47:17.010Z,10.57
2019-05-10T01:49:45.613Z,10.77
2019-05-10T01:52:14.608Z,9.90
2019-05-10T01:54:43.313Z,10.93
2019-05-10T01:57:11.931Z,10.97
2019-05-10T01:59:40.539Z,10.10
2019-05-10T02:02:09.144Z,10.10
2019-05-10T02:04:37.712Z,10.27
2019-05-10T02:07:06.617Z,9.90
2019-05-10T02:09:35.220Z,10.70
2019-05-10T02:12:03.829Z,9.80
2019-05-10T02:14:32.323Z,10.10
2019-05-10T02:17:00.917Z,10.07
2019-05-10T02:19:29.369Z,10.23
2019-05-10T02:21:57.981Z,10.70
2019-05-10T02:24:26.605Z,10.77
2019-05-10T02:26:55.324Z,11.30
2019-05-10T02:29:23.920Z,10.70
2019-05-10T02:31:52.513Z,10.17
2019-05-10T02:34:21.005Z,11.63
2019-05-10T02:36:49.612Z,10.93
2019-05-10T02:39:18.212Z,10.70
2019-05-10T02:41:46.726Z,10.90
2019-05-10T02:44:15.304Z,11.30
2019-05-10T02:46:43.877Z,11.93
2019-05-10T02:49:12.358Z,11.47
2019-05-10T02:51:40.931Z,12.00
2019-05-10T02:54:09.529Z,11.80
2019-05-10T02:56:38.747Z,10.40
2019-05-10T02:59:09.912Z,11.50
2019-05-10T03:01:43.575Z,10.90
2019-05-10T03:04:13.475Z,10.90
2019-05-10T03:06:43.677Z,11.60
2019-05-10T03:09:12.213Z,11.07
2019-05-10T03:11:48.617Z,11.83
2019-05-10T03:14:18.323Z,11.33
2019-05-10T03:16:49.595Z,11.57
2019-05-10T03:19:19.549Z,11.33
2019-05-10T03:21:54.126Z,10.93
2019-05-10T03:24:27.592Z,11.30
2019-05-10T03:26:53.340Z,12.33
2019-05-10T03:29:21.922Z,11.60
2019-05-10T03:31:50.533Z,12.47
2019-05-10T03:34:19.115Z,12.10
2019-05-10T03:36:47.914Z,11.47
2019-05-10T03:39:16.611Z,12.07
2019-05-10T03:41:45.299Z,11.87
2019-05-10T03:44:13.881Z,11.50
2019-05-10T03:46:42.470Z,11.73
2019-05-10T03:49:11.156Z,11.23
2019-05-10T03:51:39.637Z,12.73
2019-05-10T03:54:08.231Z,11.73
2019-05-10T03:56:36.942Z,12.07
2019-05-10T03:59:05.533Z,12.33
2019-05-10T04:01:34.006Z,16.47
2019-05-10T04:04:02.726Z,12.70
2019-05-10T04:06:31.403Z,12.80
2019-05-10T04:08:59.980Z,13.80
2019-05-10T04:11:28.575Z,15.33
2019-05-10T04:13:57.243Z,14.87
2019-05-10T04:16:25.825Z,14.37
2019-05-10T04:18:54.407Z,14.10
2019-05-10T04:21:22.994Z,14.97
2019-05-10T04:23:51.614Z,14.83
2019-05-10T04:26:20.180Z,13.93
2019-05-10T04:28:48.804Z,14.27
2019-05-10T04:31:17.412Z,14.83
2019-05-10T04:33:46.035Z,16.37
2019-05-10T04:36:14.625Z,14.70
2019-05-10T04:38:43.363Z,14.43
2019-05-10T04:41:11.967Z,15.10
2019-05-10T04:43:40.455Z,13.93
2019-05-10T04:46:09.016Z,13.40
2019-05-10T04:48:37.701Z,12.10
2019-05-10T04:51:07.438Z,12.83
2019-05-10T04:53:35.972Z,12.60
2019-05-10T04:56:04.581Z,13.30
2019-05-10T04:58:33.076Z,13.27
2019-05-10T05:01:01.579Z,12.37
2019-05-10T05:03:30.269Z,14.57
2019-05-10T05:05:58.850Z,13.80
2019-05-10T05:08:27.442Z,13.37
2019-05-10T05:10:56.167Z,13.00
2019-05-10T05:13:24.697Z,14.20
2019-05-10T05:15:53.320Z,12.97
2019-05-10T05:18:21.996Z,12.90
2019-05-10T05:20:50.547Z,12.07
2019-05-10T05:23:19.084Z,12.70
2019-05-10T05:25:47.696Z,12.40
2019-05-10T05:28:18.427Z,14.37
2019-05-10T05:30:46.679Z,13.50
2019-05-10T05:33:15.180Z,14.90
2019-05-10T05:35:43.770Z,16.13
2019-05-10T05:38:12.390Z,16.30
2019-05-10T05:40:41.067Z,16.40
2019-05-10T05:43:09.888Z,16.87
2019-05-10T05:45:38.490Z,17.37
2019-05-10T05:48:07.169Z,12.80
2019-05-10T05:50:35.639Z,18.47
2019-05-10T05:53:04.165Z,20.47
2019-05-10T05:55:32.991Z,21.97
2019-05-10T05:58:04.940Z,21.47
2019-05-10T06:00:37.668Z,22.87
2019-05-10T06:03:03.007Z,24.27
2019-05-10T06:05:34.988Z,23.57
2019-05-10T06:08:02.353Z,20.43
2019-05-10T06:10:31.130Z,21.50
2019-05-10T06:12:59.968Z,21.47
2019-05-10T06:15:31.055Z,20.37
2019-05-10T06:18:03.669Z,23.03
2019-05-10T06:20:29.935Z,21.67
2019-05-10T06:23:06.354Z,21.60
2019-05-10T06:25:39.793Z,23.30
2019-05-10T06:27:59.870Z,21.23
2019-05-10T06:30:28.481Z,18.07
2019-05-10T06:33:00.796Z,19.53
2019-05-10T06:35:27.672Z,19.23
2019-05-10T06:37:56.282Z,19.57
2019-05-10T06:40:35.624Z,18.87
2019-05-10T06:42:56.073Z,17.83
2019-05-10T06:45:25.419Z,19.33
2019-05-10T06:47:54.635Z,19.80
2019-05-10T06:50:29.802Z,21.27
2019-05-10T06:52:53.943Z,20.93
2019-05-10T06:55:22.332Z,21.27
2019-05-10T06:57:59.588Z,19.00
2019-05-10T07:00:21.188Z,19.60
2019-05-10T07:02:49.597Z,21.37
2019-05-10T07:05:18.204Z,20.33
2019-05-10T07:07:46.826Z,21.90
2019-05-10T07:10:18.929Z,23.27
2019-05-10T07:12:45.945Z,23.43
2019-05-10T07:15:14.614Z,23.93
2019-05-10T07:17:47.026Z,23.50
2019-05-10T07:20:13.571Z,23.23
2019-05-10T07:22:41.926Z,19.70
2019-05-10T07:25:10.640Z,19.13
2019-05-10T07:27:39.275Z,20.03
2019-05-10T07:30:08.383Z,20.60
2019-05-10T07:32:37.199Z,21.57
2019-05-10T07:35:06.080Z,14.93
2019-05-10T07:37:34.611Z,20.17
2019-05-10T07:40:03.897Z,19.90
2019-05-10T07:42:32.391Z,17.53
2019-05-10T07:45:01.404Z,20.50
2019-05-10T07:47:30.893Z,15.73
2019-05-10T07:50:04.018Z,20.87
2019-05-10T07:52:30.743Z,17.83
2019-05-10T07:54:59.190Z,19.63
2019-05-10T07:57:28.605Z,20.20
2019-05-10T08:00:03.056Z,20.13
2019-05-10T08:02:28.058Z,19.97
2019-05-10T08:04:58.452Z,18.93
2019-05-10T08:07:29.378Z,17.13
2019-05-10T08:09:59.468Z,14.23
2019-05-10T08:12:28.826Z,14.77
2019-05-10T08:14:59.016Z,15.13
2019-05-10T08:17:28.717Z,16.53
2019-05-10T08:19:57.461Z,15.20
2019-05-10T08:22:26.066Z,19.03
2019-05-10T08:24:56.385Z,17.73
2019-05-10T08:27:24.879Z,18.53
2019-05-10T08:30:18.049Z,16.97
2019-05-10T08:32:25.632Z,17.37
2019-05-10T08:34:55.834Z,17.07
2019-05-10T08:37:33.127Z,16.53
2019-05-10T08:39:56.055Z,17.43
2019-05-10T08:42:35.613Z,18.40
2019-05-10T08:45:03.761Z,17.30
2019-05-10T08:47:27.805Z,17.63
2019-05-10T08:50:10.503Z,18.80
2019-05-10T08:52:30.927Z,17.73
2019-05-10T08:54:57.240Z,16.30
2019-05-10T08:57:25.767Z,16.37
2019-05-10T09:00:06.562Z,16.13
2019-05-10T09:02:29.049Z,12.73
2019-05-10T09:04:55.232Z,12.30
2019-05-10T09:07:23.664Z,11.20
2019-05-10T09:09:53.098Z,11.07
2019-05-10T09:12:23.067Z,11.07
2019-05-10T09:14:57.366Z,10.17
2019-05-10T09:17:27.132Z,10.63
2019-05-10T09:19:52.889Z,11.43
2019-05-10T09:22:26.042Z,11.43
2019-05-10T09:24:53.069Z,10.07
2019-05-10T09:27:22.467Z,11.10
2019-05-10T09:29:53.069Z,10.23
2019-05-10T09:32:28.660Z,10.80
2019-05-10T09:34:54.319Z,10.50
2019-05-10T09:37:23.118Z,9.77
2019-05-10T09:39:54.868Z,11.37
2019-05-10T09:42:26.483Z,11.60
2019-05-10T09:44:52.815Z,9.27
2019-05-10T09:47:22.232Z,11.27
2019-05-10T09:49:58.508Z,10.93
2019-05-10T09:52:21.981Z,11.50
2019-05-10T09:54:50.623Z,9.20
2019-05-10T09:57:19.238Z,8.10
2019-05-10T09:59:47.843Z,9.73
2019-05-10T10:02:18.810Z,6.30
2019-05-10T10:04:47.398Z,6.53
2019-05-10T10:07:18.736Z,6.80
2019-05-10T10:09:47.757Z,6.73
2019-05-10T10:12:17.517Z,6.33
2019-05-10T10:14:47.257Z,5.40
2019-05-10T10:17:18.395Z,6.10
2019-05-10T10:19:48.068Z,4.97
2019-05-10T10:22:17.375Z,4.20
2019-05-10T10:24:49.136Z,3.93
2019-05-10T10:27:18.053Z,4.70
2019-05-10T10:29:47.443Z,3.67
2019-05-10T10:32:16.280Z,3.40
2019-05-10T10:34:44.765Z,3.70
2019-05-10T10:37:14.582Z,3.40
2019-05-10T10:39:44.280Z,2.90
2019-05-10T10:42:13.412Z,3.23
2019-05-10T10:44:42.173Z,3.00
2019-05-10T10:47:10.629Z,3.33
2019-05-10T10:49:39.233Z,3.23
2019-05-10T10:52:11.439Z,9.07
2019-05-10T10:54:39.871Z,2.50
2019-05-10T10:57:08.786Z,2.70
2019-05-10T10:59:37.587Z,2.50
2019-05-10T11:02:28.987Z,2.47
2019-05-10T11:04:40.717Z,2.47
2019-05-10T11:07:10.261Z,2.30
2019-05-10T11:09:37.406Z,2.20
2019-05-10T11:12:05.913Z,2.03
2019-05-10T11:14:39.914Z,1.70
2019-05-10T11:17:05.060Z,2.60
2019-05-10T11:19:33.555Z,2.00
2019-05-10T11:22:09.358Z,1.70
2019-05-10T11:24:32.695Z,2.50
2019-05-10T11:27:01.187Z,2.93
2019-05-10T11:29:30.816Z,2.30
2019-05-10T11:32:15.234Z,2.60
2019-05-10T11:34:37.292Z,2.00
2019-05-10T11:37:00.521Z,1.97
2019-05-10T11:39:34.780Z,2.20
2019-05-10T11:42:06.719Z,2.43
2019-05-10T11:44:31.675Z,2.40
2019-05-10T11:47:01.555Z,2.20
2019-05-10T11:49:30.865Z,3.03
2019-05-10T11:52:01.663Z,2.37
2019-05-10T11:54:31.930Z,2.63
2019-05-10T11:57:06.614Z,2.60
2019-05-10T11:59:33.750Z,2.33
2019-05-10T12:02:02.916Z,2.13
2019-05-10T12:04:38.817Z,2.40
2019-05-10T12:07:08.468Z,2.30
2019-05-10T12:09:33.718Z,2.87
2019-05-10T12:19:14.854Z,2.30
2019-05-10T12:21:33.536Z,3.80
2019-05-10T12:24:10.350Z,3.00
2019-05-10T12:27:13.340Z,2.30
2019-05-10T12:29:12.426Z,2.27
2019-05-10T12:31:34.631Z,2.20
2019-05-10T12:34:09.283Z,2.37
2019-05-10T12:36:33.844Z,2.17
2019-05-10T12:39:04.835Z,2.50
2019-05-10T12:41:33.437Z,2.80
2019-05-10T12:44:04.192Z,3.00
2019-05-10T12:46:32.744Z,2.50
2019-05-10T12:49:04.716Z,2.90
2019-05-10T12:51:32.312Z,2.70
2019-05-10T12:54:00.897Z,2.80
2019-05-10T12:56:35.022Z,2.57
2019-05-10T12:58:59.942Z,3.57
2019-05-10T13:01:31.846Z,2.70
2019-05-10T13:04:01.958Z,2.70
2019-05-10T13:06:29.741Z,2.83
2019-05-10T13:08:58.221Z,3.33
2019-05-10T13:11:27.127Z,3.30
2019-05-10T13:14:01.049Z,2.90
2019-05-10T13:16:26.806Z,2.63
2019-05-10T13:18:55.680Z,2.70
2019-05-10T13:21:24.465Z,2.83
2019-05-10T13:23:55.223Z,2.50
2019-05-10T13:26:23.882Z,2.90
2019-05-10T13:28:52.611Z,2.70
2019-05-10T13:31:21.185Z,2.57
2019-05-10T13:33:49.688Z,2.47
2019-05-10T13:36:18.314Z,2.63
2019-05-10T13:38:49.194Z,2.30
2019-05-10T13:41:23.464Z,2.93
2019-05-10T13:43:48.867Z,2.90
2019-05-10T13:46:17.554Z,2.60
2019-05-10T13:48:46.386Z,2.50
2019-05-10T13:51:14.872Z,2.33
2019-05-10T13:53:43.673Z,3.53
2019-05-10T13:56:12.163Z,2.37
2019-05-10T13:58:40.880Z,3.33
2019-05-10T14:01:13.075Z,3.10
2019-05-10T14:03:44.390Z,2.40
2019-05-10T14:06:10.945Z,2.90
2019-05-10T14:08:42.866Z,2.80
2019-05-10T14:11:09.788Z,2.70
2019-05-10T14:13:41.355Z,3.30
2019-05-10T14:16:18.344Z,3.00
2019-05-10T14:18:39.582Z,3.33
2019-05-10T14:21:08.382Z,3.57
2019-05-10T14:23:37.496Z,2.90
2019-05-10T14:26:09.330Z,3.00
2019-05-10T14:28:36.764Z,2.67
2019-05-10T14:31:05.382Z,2.50
2019-05-10T14:33:34.213Z,2.70
2019-05-10T14:36:03.403Z,2.70
2019-05-10T14:38:32.120Z,2.37
2019-05-10T14:41:03.871Z,2.57
2019-05-10T14:43:31.322Z,2.70
2019-05-10T14:46:00.230Z,2.57
2019-05-10T14:48:30.694Z,2.80
2019-05-10T14:51:03.090Z,9.20
2019-05-10T14:53:30.319Z,3.77
2019-05-10T14:55:58.911Z,7.60
2019-05-10T14:58:27.404Z,5.27
2019-05-10T15:00:56.730Z,5.07
2019-05-10T15:03:25.203Z,3.53
2019-05-10T15:05:55.621Z,3.30
2019-05-10T15:08:24.215Z,2.80
2019-05-10T15:10:52.804Z,2.83
2019-05-10T15:13:25.517Z,2.93
2019-05-10T15:15:52.390Z,3.47
2019-05-10T15:18:21.298Z,3.67
2019-05-10T15:20:49.739Z,3.40
2019-05-10T15:23:18.328Z,3.77
2019-05-10T15:25:56.377Z,4.07
2019-05-10T15:28:17.331Z,3.60
2019-05-10T15:30:51.924Z,4.10
2019-05-10T15:33:16.603Z,3.70
2019-05-10T15:35:51.242Z,3.60
2019-05-10T15:38:15.946Z,3.10
2019-05-10T15:40:45.992Z,3.50
2019-05-10T15:43:16.937Z,3.80
2019-05-10T15:45:52.189Z,3.93
2019-05-10T15:48:16.409Z,59.63
2019-05-10T15:50:45.225Z,40.40
2019-05-10T15:53:13.765Z,37.23
2019-05-10T15:55:42.409Z,7.20
2019-05-10T15:58:14.722Z,4.83
2019-05-10T16:00:43.306Z,5.80
2019-05-10T16:03:11.795Z,4.20
2019-05-10T16:05:43.812Z,20.70
2019-05-10T16:08:13.624Z,24.23
2019-05-10T16:10:41.216Z,21.33
2019-05-10T16:13:15.197Z,5.63
2019-05-10T16:15:40.219Z,4.37
2019-05-10T16:18:09.026Z,4.20
2019-05-10T16:20:39.070Z,4.23
2019-05-10T16:23:08.585Z,5.43
2019-05-10T16:25:42.028Z,4.63
2019-05-10T16:28:08.971Z,5.10
2019-05-10T16:30:37.680Z,4.40
2019-05-10T16:33:09.590Z,4.67
2019-05-10T16:35:39.118Z,5.00
2019-05-10T16:38:07.606Z,5.63
2019-05-10T16:40:36.006Z,5.37
2019-05-10T16:43:06.942Z,5.70
2019-05-10T16:45:35.969Z,6.00
2019-05-10T16:48:05.926Z,4.80
2019-05-10T16:50:34.761Z,5.37
2019-05-10T16:53:05.927Z,5.37
2019-05-10T16:55:35.578Z,5.30
2019-05-10T16:58:09.423Z,4.93
2019-05-10T17:00:35.263Z,5.00
2019-05-10T17:03:03.895Z,5.23
2019-05-10T17:05:33.206Z,5.30
2019-05-10T17:08:01.881Z,5.07
2019-05-10T17:10:33.095Z,4.77
2019-05-10T17:13:05.063Z,5.83
2019-05-10T17:15:34.053Z,5.87
2019-05-10T17:18:02.099Z,5.47
2019-05-10T17:20:31.407Z,6.00
2019-05-10T17:23:07.685Z,5.63
2019-05-10T17:25:30.648Z,5.80
2019-05-10T17:28:00.043Z,6.00
2019-05-10T17:30:29.505Z,6.03
2019-05-10T17:33:04.145Z,6.20
2019-05-10T17:35:28.801Z,6.83
2019-05-10T17:37:57.425Z,5.53
2019-05-10T17:40:25.929Z,5.97
2019-05-10T17:42:54.515Z,5.80
2019-05-10T17:45:23.140Z,5.80
2019-05-10T17:47:51.652Z,6.03
2019-05-10T17:50:20.489Z,6.03
2019-05-10T17:52:49.018Z,6.10
2019-05-10T17:55:18.512Z,6.07
2019-05-10T17:57:48.733Z,6.03
2019-05-10T18:00:18.233Z,6.27
2019-05-10T18:02:47.141Z,7.23
2019-05-10T18:05:15.849Z,8.10
2019-05-10T18:07:44.970Z,7.20
2019-05-10T18:10:13.996Z,6.80
2019-05-10T18:12:42.850Z,5.87
2019-05-10T18:15:11.447Z,5.43
2019-05-10T18:17:40.040Z,5.30
2019-05-10T18:20:09.778Z,4.70
2019-05-10T18:22:43.263Z,5.03
2019-05-10T18:25:19.519Z,4.73
2019-05-10T18:27:39.716Z,4.47
2019-05-10T18:30:09.073Z,4.93
2019-05-10T18:32:37.641Z,4.40
2019-05-10T18:37:37.556Z,5.83
2019-05-10T18:40:07.004Z,5.77
2019-05-10T18:42:35.655Z,5.00
2019-05-10T18:45:04.840Z,4.63
2019-05-10T18:47:33.374Z,4.70
2019-05-10T18:50:01.902Z,4.27
2019-05-10T18:52:30.903Z,4.87
2019-05-10T18:54:59.612Z,4.60
2019-05-10T18:57:28.213Z,6.30
2019-05-10T18:59:56.722Z,8.50
2019-05-10T19:02:25.221Z,8.53
2019-05-10T19:04:54.310Z,7.07
2019-05-10T19:07:23.066Z,8.07
2019-05-10T19:09:51.806Z,8.77
2019-05-10T19:12:22.495Z,10.13
2019-05-10T19:14:51.067Z,9.60
2019-05-10T19:17:19.697Z,9.13
2019-05-10T19:19:48.623Z,8.03
2019-05-10T19:22:17.695Z,8.43
2019-05-10T19:24:46.756Z,8.07
2019-05-10T19:27:15.365Z,8.47
2019-05-10T19:29:47.627Z,9.23
2019-05-10T19:32:18.315Z,9.13
2019-05-10T19:34:48.351Z,8.20
2019-05-10T19:37:29.675Z,7.83
2019-05-10T19:39:47.239Z,8.60
2019-05-10T19:42:17.050Z,7.97
2019-05-10T19:44:45.628Z,7.00
2019-05-10T19:47:17.784Z,7.00
2019-05-10T19:49:45.969Z,7.13
2019-05-10T19:52:21.276Z,7.37
2019-05-10T19:54:46.238Z,6.87
2019-05-10T19:57:18.553Z,7.23
2019-05-10T19:59:48.920Z,7.10
2019-05-10T20:02:15.667Z,7.10
2019-05-10T20:04:44.414Z,7.90
2019-05-10T20:07:12.918Z,7.40
2019-05-10T20:09:41.454Z,7.60
2019-05-10T20:12:10.471Z,7.73
2019-05-10T20:14:39.037Z,6.87
2019-05-10T20:17:07.659Z,6.67
2019-05-10T20:19:36.305Z,7.33
2019-05-10T20:22:04.931Z,6.63
2019-05-10T20:24:33.560Z,6.93
2019-05-10T20:27:02.231Z,6.80
2019-05-10T20:29:31.093Z,6.60
2019-05-10T20:31:59.915Z,6.60
2019-05-10T20:34:29.916Z,6.33
2019-05-10T20:36:58.435Z,6.27
2019-05-10T20:39:26.849Z,6.67
2019-05-10T20:41:57.913Z,6.40
2019-05-10T20:44:30.642Z,6.90
2019-05-10T20:46:59.229Z,6.63
2019-05-10T20:49:30.289Z,7.03
2019-05-10T20:51:58.946Z,6.77
2019-05-10T20:54:27.617Z,6.00
2019-05-10T20:56:56.385Z,6.00
2019-05-10T20:59:25.003Z,6.87
2019-05-10T21:01:53.752Z,7.03
2019-05-10T21:04:24.977Z,6.90
2019-05-10T21:06:53.604Z,6.47
2019-05-10T21:09:22.101Z,6.70
2019-05-10T21:11:51.205Z,7.07
2019-05-10T21:14:23.092Z,7.07
2019-05-10T21:16:54.556Z,6.40
2019-05-10T21:19:23.195Z,6.80
2019-05-10T21:22:01.589Z,6.50
2019-05-10T21:24:30.211Z,6.37
2019-05-10T21:26:58.768Z,6.00
2019-05-10T21:29:27.265Z,6.50
2019-05-10T21:31:55.844Z,6.23
2019-05-10T21:34:24.428Z,6.73
2019-05-10T21:36:53.053Z,6.00
2019-05-10T21:39:21.616Z,6.37
2019-05-10T21:41:50.225Z,6.03
2019-05-10T21:44:18.691Z,6.00
2019-05-10T21:46:47.383Z,5.83
2019-05-10T21:49:15.863Z,6.47
2019-05-10T21:51:44.441Z,6.80
2019-05-10T21:54:13.003Z,6.23
2019-05-10T21:56:41.584Z,6.67
2019-05-10T21:59:09.967Z,6.20
2019-05-10T22:01:38.453Z,6.40
2019-05-10T22:04:06.928Z,6.13
2019-05-10T22:06:35.474Z,6.30
2019-05-10T22:09:05.697Z,5.80
2019-05-10T22:11:34.291Z,6.53
2019-05-10T22:14:02.959Z,6.27
2019-05-10T22:16:31.692Z,6.23
2019-05-10T22:19:01.688Z,6.63
2019-05-10T22:21:30.179Z,6.10
2019-05-10T22:23:58.688Z,6.50
2019-05-10T22:26:27.193Z,6.20
2019-05-10T22:28:55.792Z,6.70
2019-05-10T22:31:24.269Z,6.23
2019-05-10T22:33:52.857Z,6.23
2019-05-10T22:36:21.443Z,5.90
2019-05-10T22:39:05.807Z,6.20
2019-05-10T22:41:20.511Z,6.10
2019-05-10T22:43:49.104Z,5.90
2019-05-10T22:46:17.655Z,6.17
2019-05-10T22:48:46.143Z,6.10
2019-05-10T22:51:14.765Z,6.30
2019-05-10T22:53:43.369Z,7.07
2019-05-10T22:56:11.843Z,6.40
2019-05-10T22:58:40.343Z,6.53
2019-05-10T23:01:08.795Z,6.47
2019-05-10T23:03:37.286Z,6.67
2019-05-10T23:06:05.764Z,6.90
2019-05-10T23:08:34.258Z,6.70
2019-05-10T23:11:02.819Z,6.30
2019-05-10T23:13:31.310Z,6.37
2019-05-10T23:15:59.832Z,5.73
2019-05-10T23:18:28.430Z,5.47
2019-05-10T23:20:56.906Z,6.27
2019-05-10T23:23:25.506Z,5.67
2019-05-10T23:25:54.013Z,5.67
2019-05-10T23:28:22.565Z,5.70
2019-05-10T23:30:51.177Z,5.67
2019-05-10T23:33:19.760Z,5.83
2019-05-10T23:35:48.393Z,6.17
2019-05-10T23:38:16.863Z,5.83
2019-05-10T23:40:45.454Z,5.07
2019-05-10T23:43:14.058Z,5.40
2019-05-10T23:45:42.452Z,5.30
2019-05-10T23:48:11.049Z,5.27
2019-05-10T23:50:39.555Z,5.83
2019-05-10T23:53:08.062Z,5.17
2019-05-10T23:55:36.665Z,5.20
2019-05-10T23:58:05.285Z,4.83
